Uvalde Research's Hourly Summary for Monday, March 13, 2017
Hour Temp
(f)
RH
(%)
Solar Rad.
(MJ/m2)
Rainfall
(in)
Wind
(mph)
3/13/2017 12:00 AM 52 95 0 0 2.13
3/13/2017 1:00 AM 51 97 0 0 1.58
3/13/2017 2:00 AM 51 99 0 0 1.36
3/13/2017 3:00 AM 51 99 0 0 1.33
3/13/2017 4:00 AM 51 100 0 0 0.56
3/13/2017 5:00 AM 51 100 0 0 0
3/13/2017 6:00 AM 52 100 0 0 0.08
3/13/2017 7:00 AM 52 100 0 0 1.77
3/13/2017 8:00 AM 52 100 0.06 0.01 2.68
3/13/2017 9:00 AM 52 100 0.14 0 2.9
3/13/2017 10:00 AM 54 100 0.69 0 1.48
3/13/2017 11:00 AM 57 98 1.48 0 0.39
3/13/2017 12:00 PM 60 89 0.62 0 0.9
3/13/2017 1:00 PM 60 78 0.24 0.01 3.22
3/13/2017 2:00 PM 63 66 1.46 0 3.62
3/13/2017 3:00 PM 68 51 2.34 0 3.29
3/13/2017 4:00 PM 70 46 1.95 0 2.76
3/13/2017 5:00 PM 71 43 1.35 0 2.05
3/13/2017 6:00 PM 71 43 0.6 0 1.18
3/13/2017 7:00 PM 68 50 0.07 0 0.57
3/13/2017 8:00 PM 63 63 0 0 0
3/13/2017 9:00 PM 59 71 0 0 0
3/13/2017 10:00 PM 57 79 0 0 0.03
3/13/2017 11:00 PM 54 87 0 0 0
Data Summary 57 81 11.00 0.02 1.41